sensor_id;sensor_type;location;lat;lon;timestamp;P1;durP1;ratioP1;P2;durP2;ratioP2
18983;SDS011;9626;52.552;13.436;2024-03-08T00:02:18;27.07;;;15.70;;
18983;SDS011;9626;52.552;13.436;2024-03-08T00:04:45;27.93;;;15.10;;
18983;SDS011;9626;52.552;13.436;2024-03-08T00:07:11;24.43;;;14.33;;
18983;SDS011;9626;52.552;13.436;2024-03-08T00:09:39;28.33;;;14.60;;
18983;SDS011;9626;52.552;13.436;2024-03-08T00:12:05;29.40;;;15.77;;
18983;SDS011;9626;52.552;13.436;2024-03-08T00:14:32;26.27;;;14.77;;
18983;SDS011;9626;52.552;13.436;2024-03-08T00:16:58;23.90;;;14.47;;
18983;SDS011;9626;52.552;13.436;2024-03-08T00:19:24;26.00;;;15.37;;
18983;SDS011;9626;52.552;13.436;2024-03-08T00:21:50;25.33;;;14.47;;
18983;SDS011;9626;52.552;13.436;2024-03-08T00:24:16;26.70;;;14.83;;
18983;SDS011;9626;52.552;13.436;2024-03-08T00:26:42;26.43;;;14.63;;
18983;SDS011;9626;52.552;13.436;2024-03-08T00:29:09;28.97;;;14.73;;
18983;SDS011;9626;52.552;13.436;2024-03-08T00:31:34;30.43;;;15.27;;
18983;SDS011;9626;52.552;13.436;2024-03-08T00:34:00;27.20;;;14.57;;
18983;SDS011;9626;52.552;13.436;2024-03-08T00:36:26;25.23;;;15.17;;
18983;SDS011;9626;52.552;13.436;2024-03-08T00:38:55;29.20;;;15.13;;
18983;SDS011;9626;52.552;13.436;2024-03-08T00:41:21;25.17;;;14.80;;
18983;SDS011;9626;52.552;13.436;2024-03-08T00:43:47;26.80;;;14.77;;
18983;SDS011;9626;52.552;13.436;2024-03-08T00:46:13;26.13;;;14.33;;
18983;SDS011;9626;52.552;13.436;2024-03-08T00:48:40;25.53;;;14.83;;
18983;SDS011;9626;52.552;13.436;2024-03-08T00:51:08;28.10;;;15.43;;
18983;SDS011;9626;52.552;13.436;2024-03-08T00:53:34;26.73;;;15.47;;
18983;SDS011;9626;52.552;13.436;2024-03-08T00:56:01;25.03;;;14.23;;
18983;SDS011;9626;52.552;13.436;2024-03-08T00:58:28;24.50;;;14.80;;
18983;SDS011;9626;52.552;13.436;2024-03-08T01:00:54;26.30;;;14.87;;
18983;SDS011;9626;52.552;13.436;2024-03-08T01:03:22;28.53;;;15.17;;
18983;SDS011;9626;52.552;13.436;2024-03-08T01:05:48;29.17;;;16.13;;
18983;SDS011;9626;52.552;13.436;2024-03-08T01:08:14;27.53;;;15.73;;
18983;SDS011;9626;52.552;13.436;2024-03-08T01:10:40;24.10;;;14.57;;
18983;SDS011;9626;52.552;13.436;2024-03-08T01:13:06;26.13;;;15.17;;
18983;SDS011;9626;52.552;13.436;2024-03-08T01:15:32;31.57;;;15.57;;
18983;SDS011;9626;52.552;13.436;2024-03-08T01:17:58;27.33;;;15.33;;
18983;SDS011;9626;52.552;13.436;2024-03-08T01:20:24;27.27;;;15.30;;
18983;SDS011;9626;52.552;13.436;2024-03-08T01:22:50;27.33;;;15.13;;
18983;SDS011;9626;52.552;13.436;2024-03-08T01:25:16;26.93;;;16.27;;
18983;SDS011;9626;52.552;13.436;2024-03-08T01:27:42;28.23;;;15.97;;
18983;SDS011;9626;52.552;13.436;2024-03-08T01:30:08;26.00;;;15.30;;
18983;SDS011;9626;52.552;13.436;2024-03-08T01:32:38;26.37;;;15.43;;
18983;SDS011;9626;52.552;13.436;2024-03-08T01:35:04;22.77;;;14.23;;
18983;SDS011;9626;52.552;13.436;2024-03-08T01:37:30;25.30;;;14.57;;
18983;SDS011;9626;52.552;13.436;2024-03-08T01:39:57;25.90;;;15.23;;
18983;SDS011;9626;52.552;13.436;2024-03-08T01:42:23;28.10;;;15.10;;
18983;SDS011;9626;52.552;13.436;2024-03-08T01:44:49;24.37;;;14.70;;
18983;SDS011;9626;52.552;13.436;2024-03-08T01:47:15;25.50;;;14.83;;
18983;SDS011;9626;52.552;13.436;2024-03-08T01:49:43;26.87;;;15.27;;
18983;SDS011;9626;52.552;13.436;2024-03-08T01:52:09;29.27;;;15.40;;
18983;SDS011;9626;52.552;13.436;2024-03-08T01:54:36;27.13;;;16.00;;
18983;SDS011;9626;52.552;13.436;2024-03-08T01:57:03;28.70;;;15.97;;
18983;SDS011;9626;52.552;13.436;2024-03-08T01:59:29;26.70;;;16.33;;
18983;SDS011;9626;52.552;13.436;2024-03-08T02:01:55;32.00;;;15.50;;
18983;SDS011;9626;52.552;13.436;2024-03-08T02:04:24;30.17;;;16.60;;
18983;SDS011;9626;52.552;13.436;2024-03-08T02:06:50;28.90;;;16.80;;
18983;SDS011;9626;52.552;13.436;2024-03-08T02:09:17;29.67;;;16.50;;
18983;SDS011;9626;52.552;13.436;2024-03-08T02:11:43;28.73;;;15.80;;
18983;SDS011;9626;52.552;13.436;2024-03-08T02:14:09;28.07;;;16.80;;
18983;SDS011;9626;52.552;13.436;2024-03-08T02:16:36;25.33;;;14.70;;
18983;SDS011;9626;52.552;13.436;2024-03-08T02:19:03;27.63;;;15.47;;
18983;SDS011;9626;52.552;13.436;2024-03-08T02:21:29;29.47;;;16.07;;
18983;SDS011;9626;52.552;13.436;2024-03-08T02:23:55;32.57;;;16.83;;
18983;SDS011;9626;52.552;13.436;2024-03-08T02:26:21;29.20;;;15.83;;
18983;SDS011;9626;52.552;13.436;2024-03-08T02:28:48;28.20;;;16.30;;
18983;SDS011;9626;52.552;13.436;2024-03-08T02:31:14;25.33;;;15.57;;
18983;SDS011;9626;52.552;13.436;2024-03-08T02:33:40;27.03;;;15.90;;
18983;SDS011;9626;52.552;13.436;2024-03-08T02:36:06;25.53;;;15.60;;
18983;SDS011;9626;52.552;13.436;2024-03-08T02:38:32;27.83;;;15.47;;
18983;SDS011;9626;52.552;13.436;2024-03-08T02:40:58;30.00;;;17.53;;
18983;SDS011;9626;52.552;13.436;2024-03-08T02:43:24;32.27;;;17.33;;
18983;SDS011;9626;52.552;13.436;2024-03-08T02:45:51;34.20;;;17.07;;
18983;SDS011;9626;52.552;13.436;2024-03-08T02:48:18;28.07;;;16.47;;
18983;SDS011;9626;52.552;13.436;2024-03-08T02:50:44;30.63;;;16.63;;
18983;SDS011;9626;52.552;13.436;2024-03-08T02:53:13;29.90;;;16.67;;
18983;SDS011;9626;52.552;13.436;2024-03-08T02:55:39;31.97;;;16.73;;
18983;SDS011;9626;52.552;13.436;2024-03-08T02:58:06;29.00;;;16.10;;
18983;SDS011;9626;52.552;13.436;2024-03-08T03:00:38;34.03;;;17.17;;
18983;SDS011;9626;52.552;13.436;2024-03-08T03:03:04;30.53;;;16.93;;
18983;SDS011;9626;52.552;13.436;2024-03-08T03:05:30;29.87;;;16.90;;
18983;SDS011;9626;52.552;13.436;2024-03-08T03:07:56;30.77;;;16.70;;
18983;SDS011;9626;52.552;13.436;2024-03-08T03:10:23;34.40;;;17.60;;
18983;SDS011;9626;52.552;13.436;2024-03-08T03:12:50;28.40;;;16.70;;
18983;SDS011;9626;52.552;13.436;2024-03-08T03:15:18;32.50;;;16.37;;
18983;SDS011;9626;52.552;13.436;2024-03-08T03:17:50;31.30;;;17.00;;
18983;SDS011;9626;52.552;13.436;2024-03-08T03:20:17;30.13;;;17.23;;
18983;SDS011;9626;52.552;13.436;2024-03-08T03:22:49;32.03;;;17.23;;
18983;SDS011;9626;52.552;13.436;2024-03-08T03:25:21;32.90;;;17.10;;
18983;SDS011;9626;52.552;13.436;2024-03-08T03:27:59;28.37;;;16.73;;
18983;SDS011;9626;52.552;13.436;2024-03-08T03:30:25;29.70;;;16.97;;
18983;SDS011;9626;52.552;13.436;2024-03-08T03:33:01;29.67;;;16.87;;
18983;SDS011;9626;52.552;13.436;2024-03-08T03:35:32;29.73;;;17.07;;
18983;SDS011;9626;52.552;13.436;2024-03-08T03:37:58;29.87;;;17.47;;
18983;SDS011;9626;52.552;13.436;2024-03-08T03:40:28;29.27;;;16.43;;
18983;SDS011;9626;52.552;13.436;2024-03-08T03:42:55;30.03;;;17.17;;
18983;SDS011;9626;52.552;13.436;2024-03-08T03:45:21;29.37;;;16.70;;
18983;SDS011;9626;52.552;13.436;2024-03-08T03:47:48;29.47;;;16.27;;
18983;SDS011;9626;52.552;13.436;2024-03-08T03:50:14;32.23;;;17.70;;
18983;SDS011;9626;52.552;13.436;2024-03-08T03:52:40;30.73;;;16.63;;
18983;SDS011;9626;52.552;13.436;2024-03-08T03:55:07;31.50;;;17.50;;
18983;SDS011;9626;52.552;13.436;2024-03-08T03:57:34;27.53;;;17.00;;
18983;SDS011;9626;52.552;13.436;2024-03-08T04:00:00;34.17;;;18.07;;
18983;SDS011;9626;52.552;13.436;2024-03-08T04:02:28;35.20;;;18.47;;
18983;SDS011;9626;52.552;13.436;2024-03-08T04:04:54;33.23;;;17.10;;
18983;SDS011;9626;52.552;13.436;2024-03-08T04:07:20;31.37;;;17.33;;
18983;SDS011;9626;52.552;13.436;2024-03-08T04:09:46;31.27;;;17.27;;
18983;SDS011;9626;52.552;13.436;2024-03-08T04:12:13;31.23;;;17.23;;
18983;SDS011;9626;52.552;13.436;2024-03-08T04:14:41;37.53;;;18.83;;
18983;SDS011;9626;52.552;13.436;2024-03-08T04:17:08;34.57;;;18.20;;
18983;SDS011;9626;52.552;13.436;2024-03-08T04:19:38;33.57;;;17.43;;
18983;SDS011;9626;52.552;13.436;2024-03-08T04:22:05;34.67;;;17.50;;
18983;SDS011;9626;52.552;13.436;2024-03-08T04:24:33;31.67;;;18.90;;
18983;SDS011;9626;52.552;13.436;2024-03-08T04:26:59;36.90;;;17.80;;
18983;SDS011;9626;52.552;13.436;2024-03-08T04:29:25;34.13;;;18.27;;
18983;SDS011;9626;52.552;13.436;2024-03-08T04:31:52;31.77;;;17.73;;
18983;SDS011;9626;52.552;13.436;2024-03-08T04:34:20;33.43;;;18.30;;
18983;SDS011;9626;52.552;13.436;2024-03-08T04:36:48;32.73;;;17.80;;
18983;SDS011;9626;52.552;13.436;2024-03-08T04:39:14;34.13;;;17.83;;
18983;SDS011;9626;52.552;13.436;2024-03-08T04:41:42;31.47;;;18.07;;
18983;SDS011;9626;52.552;13.436;2024-03-08T04:44:11;34.17;;;18.00;;
18983;SDS011;9626;52.552;13.436;2024-03-08T04:46:38;32.53;;;17.10;;
18983;SDS011;9626;52.552;13.436;2024-03-08T04:49:04;34.97;;;19.57;;
18983;SDS011;9626;52.552;13.436;2024-03-08T04:51:30;34.20;;;17.87;;
18983;SDS011;9626;52.552;13.436;2024-03-08T04:53:56;32.60;;;18.20;;
18983;SDS011;9626;52.552;13.436;2024-03-08T04:56:23;37.60;;;18.30;;
18983;SDS011;9626;52.552;13.436;2024-03-08T04:58:49;33.23;;;17.40;;
18983;SDS011;9626;52.552;13.436;2024-03-08T05:01:15;35.37;;;18.73;;
18983;SDS011;9626;52.552;13.436;2024-03-08T05:03:41;31.83;;;18.07;;
18983;SDS011;9626;52.552;13.436;2024-03-08T05:06:07;34.63;;;19.07;;
18983;SDS011;9626;52.552;13.436;2024-03-08T05:08:33;31.97;;;17.33;;
18983;SDS011;9626;52.552;13.436;2024-03-08T05:11:01;32.50;;;17.70;;
18983;SDS011;9626;52.552;13.436;2024-03-08T05:13:32;33.03;;;17.40;;
18983;SDS011;9626;52.552;13.436;2024-03-08T05:15:58;35.93;;;18.63;;
18983;SDS011;9626;52.552;13.436;2024-03-08T05:18:24;40.93;;;19.93;;
18983;SDS011;9626;52.552;13.436;2024-03-08T05:20:50;32.97;;;18.67;;
18983;SDS011;9626;52.552;13.436;2024-03-08T05:23:17;33.30;;;18.17;;
18983;SDS011;9626;52.552;13.436;2024-03-08T05:25:45;34.87;;;17.17;;
18983;SDS011;9626;52.552;13.436;2024-03-08T05:28:12;30.80;;;18.13;;
18983;SDS011;9626;52.552;13.436;2024-03-08T05:30:38;33.70;;;18.30;;
18983;SDS011;9626;52.552;13.436;2024-03-08T05:33:04;33.07;;;18.67;;
18983;SDS011;9626;52.552;13.436;2024-03-08T05:35:30;35.83;;;19.13;;
18983;SDS011;9626;52.552;13.436;2024-03-08T05:37:58;33.73;;;18.77;;
18983;SDS011;9626;52.552;13.436;2024-03-08T05:40:23;37.23;;;18.87;;
18983;SDS011;9626;52.552;13.436;2024-03-08T05:42:49;37.33;;;18.73;;
18983;SDS011;9626;52.552;13.436;2024-03-08T05:45:15;32.10;;;17.70;;
18983;SDS011;9626;52.552;13.436;2024-03-08T05:47:41;37.77;;;19.47;;
18983;SDS011;9626;52.552;13.436;2024-03-08T05:50:08;32.73;;;19.03;;
18983;SDS011;9626;52.552;13.436;2024-03-08T05:52:37;37.97;;;19.87;;
18983;SDS011;9626;52.552;13.436;2024-03-08T05:55:04;34.70;;;18.50;;
18983;SDS011;9626;52.552;13.436;2024-03-08T05:57:33;33.30;;;18.77;;
18983;SDS011;9626;52.552;13.436;2024-03-08T05:59:59;35.23;;;19.53;;
18983;SDS011;9626;52.552;13.436;2024-03-08T06:02:25;33.93;;;18.20;;
18983;SDS011;9626;52.552;13.436;2024-03-08T06:04:51;33.97;;;18.03;;
18983;SDS011;9626;52.552;13.436;2024-03-08T06:07:17;36.23;;;19.33;;
18983;SDS011;9626;52.552;13.436;2024-03-08T06:09:43;35.47;;;19.17;;
18983;SDS011;9626;52.552;13.436;2024-03-08T06:12:11;40.80;;;19.97;;
18983;SDS011;9626;52.552;13.436;2024-03-08T06:14:37;35.50;;;20.53;;
18983;SDS011;9626;52.552;13.436;2024-03-08T06:17:04;37.60;;;19.73;;
18983;SDS011;9626;52.552;13.436;2024-03-08T06:19:32;34.33;;;18.23;;
18983;SDS011;9626;52.552;13.436;2024-03-08T06:21:59;39.07;;;18.70;;
18983;SDS011;9626;52.552;13.436;2024-03-08T06:24:28;37.80;;;19.80;;
18983;SDS011;9626;52.552;13.436;2024-03-08T06:26:54;34.47;;;19.53;;
18983;SDS011;9626;52.552;13.436;2024-03-08T06:29:20;36.63;;;19.37;;
18983;SDS011;9626;52.552;13.436;2024-03-08T06:31:46;39.90;;;20.10;;
18983;SDS011;9626;52.552;13.436;2024-03-08T06:34:12;34.67;;;20.00;;
18983;SDS011;9626;52.552;13.436;2024-03-08T06:36:38;40.33;;;21.20;;
18983;SDS011;9626;52.552;13.436;2024-03-08T06:39:04;39.93;;;21.70;;
18983;SDS011;9626;52.552;13.436;2024-03-08T06:41:35;35.80;;;19.80;;
18983;SDS011;9626;52.552;13.436;2024-03-08T06:44:02;35.70;;;19.90;;
18983;SDS011;9626;52.552;13.436;2024-03-08T06:46:28;36.27;;;21.00;;
18983;SDS011;9626;52.552;13.436;2024-03-08T06:48:54;38.97;;;19.73;;
18983;SDS011;9626;52.552;13.436;2024-03-08T06:51:20;38.27;;;20.90;;
18983;SDS011;9626;52.552;13.436;2024-03-08T06:53:46;35.97;;;19.37;;
18983;SDS011;9626;52.552;13.436;2024-03-08T06:56:12;40.93;;;20.20;;
18983;SDS011;9626;52.552;13.436;2024-03-08T06:58:38;37.97;;;20.07;;
18983;SDS011;9626;52.552;13.436;2024-03-08T07:01:04;33.30;;;18.63;;
18983;SDS011;9626;52.552;13.436;2024-03-08T07:03:33;35.37;;;19.13;;
18983;SDS011;9626;52.552;13.436;2024-03-08T07:05:59;39.73;;;19.33;;
18983;SDS011;9626;52.552;13.436;2024-03-08T07:08:25;40.00;;;20.57;;
18983;SDS011;9626;52.552;13.436;2024-03-08T07:10:53;36.77;;;19.43;;
18983;SDS011;9626;52.552;13.436;2024-03-08T07:13:20;38.90;;;20.07;;
18983;SDS011;9626;52.552;13.436;2024-03-08T07:15:46;34.07;;;18.83;;
18983;SDS011;9626;52.552;13.436;2024-03-08T07:18:12;36.77;;;20.40;;
18983;SDS011;9626;52.552;13.436;2024-03-08T07:20:40;34.10;;;19.80;;
18983;SDS011;9626;52.552;13.436;2024-03-08T07:23:07;35.90;;;19.87;;
18983;SDS011;9626;52.552;13.436;2024-03-08T07:25:34;40.23;;;21.20;;
18983;SDS011;9626;52.552;13.436;2024-03-08T07:28:00;35.40;;;19.87;;
18983;SDS011;9626;52.552;13.436;2024-03-08T07:30:27;41.30;;;19.63;;
18983;SDS011;9626;52.552;13.436;2024-03-08T07:33:11;35.53;;;20.00;;
18983;SDS011;9626;52.552;13.436;2024-03-08T07:35:38;31.97;;;18.63;;
18983;SDS011;9626;52.552;13.436;2024-03-08T07:38:04;33.23;;;18.57;;
18983;SDS011;9626;52.552;13.436;2024-03-08T07:40:37;37.27;;;20.00;;
18983;SDS011;9626;52.552;13.436;2024-03-08T07:43:06;34.43;;;19.30;;
18983;SDS011;9626;52.552;13.436;2024-03-08T07:45:33;35.77;;;18.97;;
18983;SDS011;9626;52.552;13.436;2024-03-08T07:47:59;31.73;;;17.40;;
18983;SDS011;9626;52.552;13.436;2024-03-08T07:50:25;32.47;;;17.47;;
18983;SDS011;9626;52.552;13.436;2024-03-08T07:52:51;31.80;;;18.30;;
18983;SDS011;9626;52.552;13.436;2024-03-08T07:55:17;33.33;;;18.60;;
18983;SDS011;9626;52.552;13.436;2024-03-08T07:57:43;34.10;;;18.30;;
18983;SDS011;9626;52.552;13.436;2024-03-08T08:00:09;33.97;;;17.90;;
18983;SDS011;9626;52.552;13.436;2024-03-08T08:02:36;32.23;;;18.07;;
18983;SDS011;9626;52.552;13.436;2024-03-08T08:05:02;29.60;;;17.93;;
18983;SDS011;9626;52.552;13.436;2024-03-08T08:07:29;29.93;;;18.57;;
18983;SDS011;9626;52.552;13.436;2024-03-08T08:09:55;29.90;;;18.13;;
18983;SDS011;9626;52.552;13.436;2024-03-08T08:12:21;32.80;;;19.43;;
18983;SDS011;9626;52.552;13.436;2024-03-08T08:14:47;31.03;;;17.87;;
18983;SDS011;9626;52.552;13.436;2024-03-08T08:17:13;33.80;;;19.97;;
18983;SDS011;9626;52.552;13.436;2024-03-08T08:19:40;31.30;;;18.37;;
18983;SDS011;9626;52.552;13.436;2024-03-08T08:22:06;30.97;;;18.30;;
18983;SDS011;9626;52.552;13.436;2024-03-08T08:24:34;30.07;;;17.93;;
18983;SDS011;9626;52.552;13.436;2024-03-08T08:27:02;32.80;;;19.00;;
18983;SDS011;9626;52.552;13.436;2024-03-08T08:29:29;28.07;;;18.07;;
18983;SDS011;9626;52.552;13.436;2024-03-08T08:31:58;27.20;;;17.73;;
18983;SDS011;9626;52.552;13.436;2024-03-08T08:34:25;30.40;;;18.57;;
18983;SDS011;9626;52.552;13.436;2024-03-08T08:36:52;31.13;;;18.63;;
18983;SDS011;9626;52.552;13.436;2024-03-08T08:39:18;31.17;;;19.23;;
18983;SDS011;9626;52.552;13.436;2024-03-08T08:41:44;29.03;;;18.67;;
18983;SDS011;9626;52.552;13.436;2024-03-08T08:44:10;29.77;;;19.20;;
18983;SDS011;9626;52.552;13.436;2024-03-08T08:46:38;33.77;;;19.73;;
18983;SDS011;9626;52.552;13.436;2024-03-08T08:49:05;34.03;;;19.53;;
18983;SDS011;9626;52.552;13.436;2024-03-08T08:51:32;28.90;;;18.93;;
18983;SDS011;9626;52.552;13.436;2024-03-08T08:54:01;25.77;;;17.53;;
18983;SDS011;9626;52.552;13.436;2024-03-08T08:56:27;27.97;;;18.53;;
18983;SDS011;9626;52.552;13.436;2024-03-08T08:58:54;31.63;;;18.70;;
18983;SDS011;9626;52.552;13.436;2024-03-08T09:01:20;25.83;;;17.57;;
18983;SDS011;9626;52.552;13.436;2024-03-08T09:03:46;32.17;;;19.30;;
18983;SDS011;9626;52.552;13.436;2024-03-08T09:06:12;31.17;;;19.10;;
18983;SDS011;9626;52.552;13.436;2024-03-08T09:08:39;28.67;;;19.20;;
18983;SDS011;9626;52.552;13.436;2024-03-08T09:11:05;28.17;;;18.87;;
18983;SDS011;9626;52.552;13.436;2024-03-08T09:13:31;27.73;;;18.50;;
18983;SDS011;9626;52.552;13.436;2024-03-08T09:15:59;30.67;;;19.80;;
18983;SDS011;9626;52.552;13.436;2024-03-08T09:18:25;28.87;;;19.43;;
18983;SDS011;9626;52.552;13.436;2024-03-08T09:20:51;27.60;;;18.87;;
18983;SDS011;9626;52.552;13.436;2024-03-08T09:23:19;29.47;;;19.60;;
18983;SDS011;9626;52.552;13.436;2024-03-08T09:25:45;26.90;;;18.80;;
18983;SDS011;9626;52.552;13.436;2024-03-08T09:28:12;29.70;;;19.50;;
18983;SDS011;9626;52.552;13.436;2024-03-08T09:30:38;26.77;;;19.97;;
18983;SDS011;9626;52.552;13.436;2024-03-08T09:33:05;27.30;;;19.00;;
18983;SDS011;9626;52.552;13.436;2024-03-08T09:35:31;29.53;;;19.30;;
18983;SDS011;9626;52.552;13.436;2024-03-08T09:37:58;25.60;;;19.40;;
18983;SDS011;9626;52.552;13.436;2024-03-08T09:40:24;27.67;;;20.07;;
18983;SDS011;9626;52.552;13.436;2024-03-08T09:42:51;26.80;;;19.90;;
18983;SDS011;9626;52.552;13.436;2024-03-08T09:45:19;26.80;;;19.57;;
18983;SDS011;9626;52.552;13.436;2024-03-08T09:47:47;27.80;;;19.47;;
18983;SDS011;9626;52.552;13.436;2024-03-08T09:50:16;27.50;;;19.33;;
18983;SDS011;9626;52.552;13.436;2024-03-08T09:52:44;28.30;;;18.57;;
18983;SDS011;9626;52.552;13.436;2024-03-08T09:55:12;26.00;;;18.07;;
18983;SDS011;9626;52.552;13.436;2024-03-08T09:57:41;25.80;;;19.53;;
18983;SDS011;9626;52.552;13.436;2024-03-08T10:00:28;28.57;;;19.57;;
18983;SDS011;9626;52.552;13.436;2024-03-08T10:02:54;24.87;;;18.37;;
18983;SDS011;9626;52.552;13.436;2024-03-08T10:05:26;23.73;;;17.40;;
18983;SDS011;9626;52.552;13.436;2024-03-08T10:07:52;26.67;;;19.47;;
18983;SDS011;9626;52.552;13.436;2024-03-08T10:10:18;27.03;;;19.10;;
18983;SDS011;9626;52.552;13.436;2024-03-08T10:12:45;25.97;;;18.13;;
18983;SDS011;9626;52.552;13.436;2024-03-08T10:15:11;25.90;;;18.77;;
18983;SDS011;9626;52.552;13.436;2024-03-08T10:17:42;24.23;;;18.27;;
18983;SDS011;9626;52.552;13.436;2024-03-08T10:20:15;27.93;;;18.53;;
18983;SDS011;9626;52.552;13.436;2024-03-08T10:22:42;23.33;;;17.63;;
18983;SDS011;9626;52.552;13.436;2024-03-08T10:25:12;25.90;;;17.87;;
18983;SDS011;9626;52.552;13.436;2024-03-08T10:27:39;23.53;;;17.27;;
18983;SDS011;9626;52.552;13.436;2024-03-08T10:30:10;26.77;;;18.57;;
18983;SDS011;9626;52.552;13.436;2024-03-08T10:32:38;25.13;;;17.97;;
18983;SDS011;9626;52.552;13.436;2024-03-08T10:35:05;22.50;;;17.17;;
18983;SDS011;9626;52.552;13.436;2024-03-08T10:37:33;22.93;;;16.90;;
18983;SDS011;9626;52.552;13.436;2024-03-08T10:40:10;26.50;;;16.87;;
18983;SDS011;9626;52.552;13.436;2024-03-08T10:42:52;26.10;;;17.47;;
18983;SDS011;9626;52.552;13.436;2024-03-08T10:50:50;22.43;;;16.27;;
18983;SDS011;9626;52.552;13.436;2024-03-08T10:53:18;23.40;;;16.30;;
18983;SDS011;9626;52.552;13.436;2024-03-08T10:55:47;19.60;;;15.43;;
18983;SDS011;9626;52.552;13.436;2024-03-08T10:58:15;20.53;;;16.03;;
18983;SDS011;9626;52.552;13.436;2024-03-08T11:00:42;22.13;;;16.43;;
18983;SDS011;9626;52.552;13.436;2024-03-08T11:03:33;21.43;;;14.77;;
18983;SDS011;9626;52.552;13.436;2024-03-08T11:06:15;20.30;;;14.00;;
18983;SDS011;9626;52.552;13.436;2024-03-08T11:15:12;19.17;;;15.40;;
18983;SDS011;9626;52.552;13.436;2024-03-08T11:17:47;21.90;;;15.17;;
18983;SDS011;9626;52.552;13.436;2024-03-08T11:20:16;19.73;;;15.00;;
18983;SDS011;9626;52.552;13.436;2024-03-08T11:22:53;19.80;;;14.77;;
18983;SDS011;9626;52.552;13.436;2024-03-08T11:25:30;19.13;;;14.33;;
18983;SDS011;9626;52.552;13.436;2024-03-08T11:28:08;17.60;;;13.80;;
18983;SDS011;9626;52.552;13.436;2024-03-08T11:30:36;19.70;;;14.40;;
18983;SDS011;9626;52.552;13.436;2024-03-08T11:33:04;21.03;;;14.70;;
18983;SDS011;9626;52.552;13.436;2024-03-08T11:35:30;19.53;;;14.43;;
18983;SDS011;9626;52.552;13.436;2024-03-08T11:37:59;20.97;;;14.97;;
18983;SDS011;9626;52.552;13.436;2024-03-08T11:40:26;19.10;;;13.60;;
18983;SDS011;9626;52.552;13.436;2024-03-08T11:42:52;16.40;;;13.73;;
18983;SDS011;9626;52.552;13.436;2024-03-08T11:45:18;33.67;;;14.37;;
18983;SDS011;9626;52.552;13.436;2024-03-08T11:47:46;18.80;;;14.03;;
18983;SDS011;9626;52.552;13.436;2024-03-08T11:50:13;17.33;;;13.37;;
18983;SDS011;9626;52.552;13.436;2024-03-08T11:52:40;16.03;;;13.70;;
18983;SDS011;9626;52.552;13.436;2024-03-08T11:55:06;15.83;;;13.13;;
18983;SDS011;9626;52.552;13.436;2024-03-08T11:57:33;19.27;;;14.60;;
18983;SDS011;9626;52.552;13.436;2024-03-08T11:59:59;18.83;;;14.17;;
18983;SDS011;9626;52.552;13.436;2024-03-08T12:02:35;18.20;;;14.30;;
18983;SDS011;9626;52.552;13.436;2024-03-08T12:05:06;19.00;;;14.33;;
18983;SDS011;9626;52.552;13.436;2024-03-08T12:07:33;18.70;;;14.20;;
18983;SDS011;9626;52.552;13.436;2024-03-08T12:10:19;19.80;;;14.53;;
18983;SDS011;9626;52.552;13.436;2024-03-08T12:12:54;18.70;;;13.23;;
18983;SDS011;9626;52.552;13.436;2024-03-08T12:15:24;20.17;;;14.33;;
18983;SDS011;9626;52.552;13.436;2024-03-08T12:17:54;20.43;;;15.00;;
18983;SDS011;9626;52.552;13.436;2024-03-08T12:20:27;20.37;;;14.47;;
18983;SDS011;9626;52.552;13.436;2024-03-08T12:22:57;23.70;;;14.20;;
18983;SDS011;9626;52.552;13.436;2024-03-08T12:25:29;19.30;;;14.03;;
18983;SDS011;9626;52.552;13.436;2024-03-08T12:28:06;20.23;;;14.53;;
18983;SDS011;9626;52.552;13.436;2024-03-08T12:30:37;16.23;;;12.73;;
18983;SDS011;9626;52.552;13.436;2024-03-08T12:33:11;20.53;;;14.20;;
18983;SDS011;9626;52.552;13.436;2024-03-08T12:35:38;17.73;;;13.57;;
18983;SDS011;9626;52.552;13.436;2024-03-08T12:38:04;20.40;;;15.53;;
18983;SDS011;9626;52.552;13.436;2024-03-08T12:40:32;21.37;;;15.17;;
18983;SDS011;9626;52.552;13.436;2024-03-08T12:43:00;18.10;;;13.07;;
18983;SDS011;9626;52.552;13.436;2024-03-08T12:45:27;18.00;;;14.00;;
18983;SDS011;9626;52.552;13.436;2024-03-08T12:47:54;17.13;;;13.93;;
18983;SDS011;9626;52.552;13.436;2024-03-08T12:50:21;19.87;;;14.50;;
18983;SDS011;9626;52.552;13.436;2024-03-08T12:52:48;19.40;;;15.10;;
18983;SDS011;9626;52.552;13.436;2024-03-08T12:55:15;18.10;;;13.97;;
18983;SDS011;9626;52.552;13.436;2024-03-08T12:57:43;17.33;;;13.57;;
18983;SDS011;9626;52.552;13.436;2024-03-08T13:00:10;18.70;;;14.37;;
18983;SDS011;9626;52.552;13.436;2024-03-08T13:02:45;16.70;;;13.43;;
18983;SDS011;9626;52.552;13.436;2024-03-08T13:05:11;16.67;;;14.23;;
18983;SDS011;9626;52.552;13.436;2024-03-08T13:07:40;18.30;;;14.37;;
18983;SDS011;9626;52.552;13.436;2024-03-08T13:10:15;18.97;;;13.97;;
18983;SDS011;9626;52.552;13.436;2024-03-08T13:12:42;17.47;;;13.80;;
18983;SDS011;9626;52.552;13.436;2024-03-08T13:15:08;18.50;;;15.17;;
18983;SDS011;9626;52.552;13.436;2024-03-08T13:17:37;20.90;;;15.57;;
18983;SDS011;9626;52.552;13.436;2024-03-08T13:20:06;22.17;;;15.40;;
18983;SDS011;9626;52.552;13.436;2024-03-08T13:22:33;18.07;;;14.23;;
18983;SDS011;9626;52.552;13.436;2024-03-08T13:24:59;18.70;;;14.27;;
18983;SDS011;9626;52.552;13.436;2024-03-08T13:27:29;18.60;;;13.90;;
18983;SDS011;9626;52.552;13.436;2024-03-08T13:29:55;17.70;;;13.00;;
18983;SDS011;9626;52.552;13.436;2024-03-08T13:32:21;15.17;;;12.67;;
18983;SDS011;9626;52.552;13.436;2024-03-08T13:34:47;17.87;;;13.57;;
18983;SDS011;9626;52.552;13.436;2024-03-08T13:37:14;16.10;;;13.10;;
18983;SDS011;9626;52.552;13.436;2024-03-08T13:39:41;17.47;;;12.60;;
18983;SDS011;9626;52.552;13.436;2024-03-08T13:42:11;19.27;;;13.83;;
18983;SDS011;9626;52.552;13.436;2024-03-08T13:44:39;15.47;;;12.23;;
18983;SDS011;9626;52.552;13.436;2024-03-08T13:47:08;14.93;;;12.67;;
18983;SDS011;9626;52.552;13.436;2024-03-08T13:49:37;19.60;;;13.93;;
18983;SDS011;9626;52.552;13.436;2024-03-08T13:52:03;19.50;;;14.70;;
18983;SDS011;9626;52.552;13.436;2024-03-08T13:54:30;19.23;;;14.13;;
18983;SDS011;9626;52.552;13.436;2024-03-08T13:56:57;20.57;;;16.40;;
18983;SDS011;9626;52.552;13.436;2024-03-08T13:59:24;19.93;;;15.37;;
18983;SDS011;9626;52.552;13.436;2024-03-08T14:01:50;21.50;;;16.03;;
18983;SDS011;9626;52.552;13.436;2024-03-08T14:04:16;24.20;;;15.63;;
18983;SDS011;9626;52.552;13.436;2024-03-08T14:06:45;21.80;;;16.77;;
18983;SDS011;9626;52.552;13.436;2024-03-08T14:09:11;20.50;;;15.50;;
18983;SDS011;9626;52.552;13.436;2024-03-08T14:11:43;22.63;;;16.63;;
18983;SDS011;9626;52.552;13.436;2024-03-08T14:14:12;20.80;;;15.90;;
18983;SDS011;9626;52.552;13.436;2024-03-08T14:16:39;31.10;;;16.27;;
18983;SDS011;9626;52.552;13.436;2024-03-08T14:19:05;19.20;;;15.70;;
18983;SDS011;9626;52.552;13.436;2024-03-08T14:21:31;24.07;;;16.63;;
18983;SDS011;9626;52.552;13.436;2024-03-08T14:23:58;20.67;;;16.03;;
18983;SDS011;9626;52.552;13.436;2024-03-08T14:26:23;20.43;;;15.23;;
18983;SDS011;9626;52.552;13.436;2024-03-08T14:28:49;22.67;;;15.53;;
18983;SDS011;9626;52.552;13.436;2024-03-08T14:31:20;17.87;;;14.10;;
18983;SDS011;9626;52.552;13.436;2024-03-08T14:33:49;19.43;;;14.60;;
18983;SDS011;9626;52.552;13.436;2024-03-08T14:36:15;19.80;;;14.43;;